GOUTY EGCM-EGNT
Flight info
| Callsign | GOUTY |
|---|---|
| Flight time | 0h 36m |
| Altitude | 8000 |
| Route | RIMTO |
| Aircraft | DA50/L-SDGRY/S |
Departure
| Time | 2026-04-21 21:40 |
|---|---|
| Airport | Leeds East Airport (EGCM) |
Arrival
| Time | 2026-04-21 22:17 |
|---|---|
| Airport | Newcastle International Airport (EGNT) |
| Time | Latitude | Longitude | Altitude | Speed | Heading |
|---|---|---|---|---|---|
| 2026-04-21 21:38 | 53.83441 | -1.19975 | 32 ft | 0 kts | 146° |
| 2026-04-21 21:38 | 53.83419 | -1.19981 | 29 ft | 9 kts | 206° |
| 2026-04-21 21:38 | 53.83358 | -1.19949 | 30 ft | 10 kts | 150° |
| 2026-04-21 21:39 | 53.83315 | -1.19878 | 31 ft | 13 kts | 81° |
| 2026-04-21 21:39 | 53.83435 | -1.19580 | 30 ft | 55 kts | 54° |
| 2026-04-21 21:39 | 53.83714 | -1.18914 | 72 ft | 77 kts | 51° |
| 2026-04-21 21:39 | 53.84031 | -1.18178 | 277 ft | 78 kts | 49° |
| 2026-04-21 21:40 | 53.84349 | -1.17459 | 487 ft | 77 kts | 52° |
| 2026-04-21 21:40 | 53.84840 | -1.17281 | 666 ft | 92 kts | 334° |
| 2026-04-21 21:40 | 53.85414 | -1.17936 | 744 ft | 106 kts | 332° |
| 2026-04-21 21:40 | 53.86054 | -1.18661 | 818 ft | 115 kts | 332° |
| 2026-04-21 21:41 | 53.86729 | -1.19441 | 893 ft | 120 kts | 331° |
| 2026-04-21 21:41 | 53.87434 | -1.20275 | 976 ft | 127 kts | 332° |
| 2026-04-21 21:41 | 53.88166 | -1.21150 | 1045 ft | 131 kts | 331° |
| 2026-04-21 21:41 | 53.88916 | -1.22052 | 1260 ft | 132 kts | 332° |
| 2026-04-21 21:42 | 53.89618 | -1.22945 | 1581 ft | 124 kts | 332° |
| 2026-04-21 21:42 | 53.90278 | -1.23906 | 1780 ft | 134 kts | 314° |
| 2026-04-21 21:42 | 53.90663 | -1.25398 | 1977 ft | 140 kts | 298° |
| 2026-04-21 21:42 | 53.91028 | -1.26934 | 2190 ft | 140 kts | 301° |
| 2026-04-21 21:43 | 53.91422 | -1.28455 | 2415 ft | 142 kts | 298° |
| 2026-04-21 21:43 | 53.91781 | -1.30019 | 2658 ft | 143 kts | 297° |
| 2026-04-21 21:43 | 53.92143 | -1.31581 | 2810 ft | 143 kts | 297° |
| 2026-04-21 21:43 | 53.92511 | -1.33155 | 2961 ft | 144 kts | 297° |
| 2026-04-21 21:44 | 53.92874 | -1.34718 | 3129 ft | 144 kts | 297° |
| 2026-04-21 21:44 | 53.93243 | -1.36302 | 3333 ft | 145 kts | 296° |
| 2026-04-21 21:44 | 53.93612 | -1.37892 | 3516 ft | 145 kts | 296° |
| 2026-04-21 21:44 | 53.93982 | -1.39479 | 3726 ft | 145 kts | 296° |
| 2026-04-21 21:45 | 53.94352 | -1.41076 | 3927 ft | 146 kts | 296° |
| 2026-04-21 21:45 | 53.94724 | -1.42675 | 4096 ft | 146 kts | 296° |
| 2026-04-21 21:45 | 53.95096 | -1.44282 | 4267 ft | 146 kts | 296° |
| 2026-04-21 21:45 | 53.95468 | -1.45888 | 4428 ft | 146 kts | 296° |
| 2026-04-21 21:46 | 53.95841 | -1.47497 | 4629 ft | 146 kts | 296° |
| 2026-04-21 21:46 | 53.96208 | -1.49089 | 4807 ft | 147 kts | 296° |
| 2026-04-21 21:46 | 53.96583 | -1.50702 | 4991 ft | 147 kts | 296° |
| 2026-04-21 21:46 | 53.96956 | -1.52320 | 5143 ft | 147 kts | 296° |
| 2026-04-21 21:47 | 53.97331 | -1.53941 | 5332 ft | 148 kts | 295° |
| 2026-04-21 21:47 | 53.97707 | -1.55575 | 5515 ft | 149 kts | 295° |
| 2026-04-21 21:47 | 53.98086 | -1.57212 | 5699 ft | 149 kts | 296° |
| 2026-04-21 21:47 | 53.98752 | -1.58405 | 5803 ft | 134 kts | 353° |
| 2026-04-21 21:48 | 53.99645 | -1.58717 | 5974 ft | 132 kts | 1° |
| 2026-04-21 21:48 | 54.00545 | -1.59049 | 6149 ft | 134 kts | 358° |
| 2026-04-21 21:48 | 54.01450 | -1.59450 | 6325 ft | 134 kts | 356° |
| 2026-04-21 21:48 | 54.02341 | -1.59869 | 6476 ft | 135 kts | 356° |
| 2026-04-21 21:49 | 54.03250 | -1.60304 | 6640 ft | 136 kts | 356° |
| 2026-04-21 21:49 | 54.04163 | -1.60744 | 6802 ft | 137 kts | 355° |
| 2026-04-21 21:49 | 54.05081 | -1.61188 | 6955 ft | 137 kts | 355° |
| 2026-04-21 21:49 | 54.06003 | -1.61633 | 7095 ft | 140 kts | 355° |
| 2026-04-21 21:50 | 54.06964 | -1.62095 | 7174 ft | 146 kts | 355° |
| 2026-04-21 21:50 | 54.07959 | -1.62576 | 7247 ft | 152 kts | 354° |
| 2026-04-21 21:50 | 54.08980 | -1.63072 | 7322 ft | 154 kts | 354° |
| 2026-04-21 21:50 | 54.10016 | -1.63577 | 7398 ft | 156 kts | 354° |
| 2026-04-21 21:51 | 54.11062 | -1.64085 | 7476 ft | 157 kts | 353° |
| 2026-04-21 21:51 | 54.12098 | -1.64588 | 7557 ft | 157 kts | 353° |
| 2026-04-21 21:51 | 54.13153 | -1.65101 | 7627 ft | 158 kts | 353° |
| 2026-04-21 21:51 | 54.14216 | -1.65617 | 7729 ft | 159 kts | 353° |
| 2026-04-21 21:52 | 54.15284 | -1.66137 | 7807 ft | 159 kts | 353° |
| 2026-04-21 21:52 | 54.16350 | -1.66656 | 7883 ft | 159 kts | 353° |
| 2026-04-21 21:52 | 54.17415 | -1.67174 | 7962 ft | 159 kts | 353° |
| 2026-04-21 21:52 | 54.18479 | -1.67692 | 8037 ft | 159 kts | 353° |
| 2026-04-21 21:53 | 54.19550 | -1.68213 | 8124 ft | 160 kts | 353° |
| 2026-04-21 21:53 | 54.20607 | -1.68731 | 8250 ft | 157 kts | 353° |
| 2026-04-21 21:53 | 54.21653 | -1.69243 | 8376 ft | 155 kts | 353° |
| 2026-04-21 21:53 | 54.22676 | -1.69742 | 8475 ft | 156 kts | 353° |
| 2026-04-21 21:54 | 54.23746 | -1.70257 | 8473 ft | 163 kts | 352° |
| 2026-04-21 21:54 | 54.24856 | -1.70799 | 8473 ft | 168 kts | 352° |
| 2026-04-21 21:54 | 54.25984 | -1.71352 | 8474 ft | 169 kts | 352° |
| 2026-04-21 21:54 | 54.27122 | -1.71910 | 8474 ft | 171 kts | 352° |
| 2026-04-21 21:55 | 54.28271 | -1.72473 | 8473 ft | 172 kts | 352° |
| 2026-04-21 21:55 | 54.29421 | -1.73037 | 8473 ft | 172 kts | 352° |
| 2026-04-21 21:55 | 54.30575 | -1.73602 | 8474 ft | 173 kts | 352° |
| 2026-04-21 21:55 | 54.31736 | -1.74171 | 8474 ft | 174 kts | 352° |
| 2026-04-21 21:56 | 54.32885 | -1.74735 | 8476 ft | 174 kts | 352° |
| 2026-04-21 21:56 | 54.34052 | -1.75307 | 8478 ft | 175 kts | 352° |
| 2026-04-21 21:56 | 54.35222 | -1.75883 | 8474 ft | 175 kts | 351° |
| 2026-04-21 21:56 | 54.36392 | -1.76458 | 8474 ft | 175 kts | 352° |
| 2026-04-21 21:57 | 54.37565 | -1.77031 | 8473 ft | 175 kts | 352° |
| 2026-04-21 21:57 | 54.38738 | -1.77603 | 8473 ft | 175 kts | 352° |
| 2026-04-21 21:57 | 54.39910 | -1.78175 | 8474 ft | 175 kts | 352° |
| 2026-04-21 21:57 | 54.41081 | -1.78747 | 8472 ft | 175 kts | 352° |
| 2026-04-21 21:58 | 54.42216 | -1.78678 | 8476 ft | 158 kts | 32° |
| 2026-04-21 21:58 | 54.43167 | -1.77785 | 8480 ft | 158 kts | 32° |
| 2026-04-21 21:58 | 54.44242 | -1.77246 | 8482 ft | 163 kts | 20° |
| 2026-04-21 21:58 | 54.45346 | -1.76880 | 8482 ft | 165 kts | 18° |
| 2026-04-21 21:59 | 54.46473 | -1.76529 | 8480 ft | 165 kts | 18° |
| 2026-04-21 21:59 | 54.47596 | -1.76177 | 8481 ft | 164 kts | 19° |
| 2026-04-21 21:59 | 54.48717 | -1.75822 | 8473 ft | 163 kts | 19° |
| 2026-04-21 21:59 | 54.49833 | -1.75467 | 8475 ft | 163 kts | 19° |
| 2026-04-21 22:00 | 54.50950 | -1.75113 | 8475 ft | 163 kts | 19° |
| 2026-04-21 22:00 | 54.52070 | -1.74757 | 8475 ft | 164 kts | 19° |
| 2026-04-21 22:00 | 54.53190 | -1.74400 | 8474 ft | 164 kts | 19° |
| 2026-04-21 22:00 | 54.54309 | -1.74045 | 8476 ft | 163 kts | 19° |
| 2026-04-21 22:01 | 54.55423 | -1.73690 | 8478 ft | 163 kts | 18° |
| 2026-04-21 22:01 | 54.56525 | -1.73339 | 8480 ft | 163 kts | 19° |
| 2026-04-21 22:01 | 54.57644 | -1.72981 | 8478 ft | 163 kts | 18° |
| 2026-04-21 22:01 | 54.58762 | -1.72627 | 8478 ft | 163 kts | 18° |
| 2026-04-21 22:02 | 54.59878 | -1.72272 | 8478 ft | 163 kts | 19° |
| 2026-04-21 22:02 | 54.60989 | -1.71918 | 8479 ft | 162 kts | 19° |
| 2026-04-21 22:02 | 54.62101 | -1.71561 | 8480 ft | 163 kts | 19° |
| 2026-04-21 22:02 | 54.63220 | -1.71203 | 8478 ft | 164 kts | 19° |
| 2026-04-21 22:03 | 54.64339 | -1.70847 | 8480 ft | 164 kts | 18° |
| 2026-04-21 22:03 | 54.65083 | -1.70609 | 8481 ft | 164 kts | 18° |
| 2026-04-21 22:03 | 54.66573 | -1.70131 | 8478 ft | 165 kts | 19° |
| 2026-04-21 22:03 | 54.67696 | -1.69773 | 8479 ft | 164 kts | 18° |
| 2026-04-21 22:04 | 54.68819 | -1.69412 | 8480 ft | 165 kts | 18° |
| 2026-04-21 22:04 | 54.69970 | -1.69269 | 8479 ft | 174 kts | 354° |
| 2026-04-21 22:04 | 54.71063 | -1.70286 | 8478 ft | 182 kts | 331° |
| 2026-04-21 22:04 | 54.71746 | -1.71125 | 8480 ft | 182 kts | 330° |
| 2026-04-21 22:05 | 54.72777 | -1.72405 | 8479 ft | 183 kts | 330° |
| 2026-04-21 22:05 | 54.73810 | -1.73688 | 8484 ft | 183 kts | 330° |
| 2026-04-21 22:05 | 54.74838 | -1.74967 | 8484 ft | 182 kts | 330° |
| 2026-04-21 22:05 | 54.76196 | -1.76666 | 8484 ft | 182 kts | 330° |
| 2026-04-21 22:06 | 54.77214 | -1.77939 | 8346 ft | 181 kts | 330° |
| 2026-04-21 22:06 | 54.77904 | -1.78802 | 8226 ft | 181 kts | 330° |
| 2026-04-21 22:06 | 54.78897 | -1.80047 | 7914 ft | 176 kts | 330° |
| 2026-04-21 22:06 | 54.79894 | -1.81314 | 7376 ft | 178 kts | 330° |
| 2026-04-21 22:07 | 54.80883 | -1.82587 | 6896 ft | 176 kts | 330° |
| 2026-04-21 22:07 | 54.81857 | -1.83856 | 6357 ft | 174 kts | 330° |
| 2026-04-21 22:07 | 54.82818 | -1.85113 | 5806 ft | 173 kts | 330° |
| 2026-04-21 22:07 | 54.83772 | -1.86358 | 5276 ft | 171 kts | 330° |
| 2026-04-21 22:08 | 54.84732 | -1.87608 | 4859 ft | 172 kts | 330° |
| 2026-04-21 22:08 | 54.85680 | -1.88842 | 4623 ft | 170 kts | 330° |
| 2026-04-21 22:08 | 54.86627 | -1.90077 | 4354 ft | 170 kts | 330° |
| 2026-04-21 22:08 | 54.87556 | -1.91290 | 4131 ft | 169 kts | 330° |
| 2026-04-21 22:09 | 54.88495 | -1.92518 | 3945 ft | 168 kts | 330° |
| 2026-04-21 22:09 | 54.89428 | -1.93737 | 3778 ft | 168 kts | 330° |
| 2026-04-21 22:09 | 54.90359 | -1.94953 | 3584 ft | 167 kts | 330° |
| 2026-04-21 22:09 | 54.91284 | -1.96160 | 3433 ft | 166 kts | 330° |
| 2026-04-21 22:10 | 54.92206 | -1.97363 | 3270 ft | 165 kts | 330° |
| 2026-04-21 22:10 | 54.93127 | -1.98542 | 3095 ft | 162 kts | 337° |
| 2026-04-21 22:10 | 54.94149 | -1.98774 | 2936 ft | 143 kts | 24° |
| 2026-04-21 22:10 | 54.95066 | -1.98152 | 2749 ft | 141 kts | 30° |
| 2026-04-21 22:11 | 54.95843 | -1.97257 | 2613 ft | 134 kts | 52° |
| 2026-04-21 22:11 | 54.96463 | -1.96062 | 2511 ft | 129 kts | 62° |
| 2026-04-21 22:11 | 54.96882 | -1.94736 | 2506 ft | 123 kts | 64° |
| 2026-04-21 22:11 | 54.97270 | -1.93417 | 2504 ft | 122 kts | 66° |
| 2026-04-21 22:12 | 54.97643 | -1.92082 | 2505 ft | 123 kts | 66° |
| 2026-04-21 22:12 | 54.98014 | -1.90740 | 2510 ft | 124 kts | 67° |
| 2026-04-21 22:12 | 54.98375 | -1.89377 | 2505 ft | 124 kts | 67° |
| 2026-04-21 22:12 | 54.98733 | -1.88029 | 2502 ft | 120 kts | 67° |
| 2026-04-21 22:13 | 54.99084 | -1.86709 | 2400 ft | 121 kts | 68° |
| 2026-04-21 22:13 | 54.99441 | -1.85363 | 2228 ft | 127 kts | 67° |
| 2026-04-21 22:13 | 54.99815 | -1.83949 | 2045 ft | 130 kts | 67° |
| 2026-04-21 22:13 | 55.00197 | -1.82507 | 1861 ft | 132 kts | 66° |
| 2026-04-21 22:14 | 55.00591 | -1.81037 | 1672 ft | 135 kts | 65° |
| 2026-04-21 22:14 | 55.00983 | -1.79559 | 1484 ft | 137 kts | 65° |
| 2026-04-21 22:14 | 55.01379 | -1.78073 | 1288 ft | 131 kts | 66° |
| 2026-04-21 22:14 | 55.01735 | -1.76719 | 1098 ft | 109 kts | 64° |
| 2026-04-21 22:15 | 55.01984 | -1.75785 | 977 ft | 77 kts | 62° |
| 2026-04-21 22:15 | 55.02192 | -1.75006 | 870 ft | 69 kts | 63° |
| 2026-04-21 22:15 | 55.02387 | -1.74275 | 791 ft | 66 kts | 62° |
| 2026-04-21 22:15 | 55.02589 | -1.73529 | 696 ft | 68 kts | 61° |
| 2026-04-21 22:16 | 55.02789 | -1.72759 | 596 ft | 70 kts | 61° |
| 2026-04-21 22:16 | 55.03010 | -1.71964 | 514 ft | 76 kts | 60° |
| 2026-04-21 22:16 | 55.03231 | -1.71111 | 399 ft | 78 kts | 59° |
| 2026-04-21 22:16 | 55.03455 | -1.70254 | 276 ft | 74 kts | 61° |
| 2026-04-21 22:17 | 55.03604 | -1.69732 | 254 ft | 12 kts | 36° |
| 2026-04-21 22:17 | 55.03584 | -1.69753 | 255 ft | 17 kts | 229° |
| 2026-04-21 22:17 | 55.03466 | -1.69835 | 256 ft | 17 kts | 188° |
| 2026-04-21 22:17 | 55.03377 | -1.69831 | 256 ft | 11 kts | 169° |
| 2026-04-21 22:18 | 55.03331 | -1.69778 | 257 ft | 6 kts | 151° |
| 2026-04-21 22:18 | 55.03321 | -1.69783 | 257 ft | 0 kts | 265° |